Nearby METAR Reports

 

CYOW - Ottawa Intl, Ontario, Canada
Distance from station: N 33km
Updated: Thu, 09-Jul-2020 1:00pm EDT
Mostly cloudy
Mostly cloudy
 Wind from WSW
Wind: WSW 19 km/h, Gust: 31 km/h
Temperature: 34°C
Dew Point: 17°C
Humidity: 36%
Barometer: 29.91 inHg , 1012.9 hPa
Clouds: Mostly cloudy
Visibility: 24 km
Cloud details: Partly cloudy 1676 m
Mostly cloudy 6706 m
2020/07/09 17:00 CYOW 091700Z 25010G17KT 190V270 15SM SCT055 BKN220 34/17 A2991 RMK CU3CI2 SLP128 DENSITY ALT 2700FT
CYGK - Kingston Arpt, Ontario, Canada
Distance from station: SW 117km
Updated: Thu, 09-Jul-2020 1:00pm EDT
Few Clouds
Few Clouds
 Wind from S
Wind: S 15 km/h
Temperature: 27°C
Heat Index: 29°C
Dew Point: 22°C
Humidity: 74%
Barometer: 29.96 inHg , 1014.6 hPa
Clouds: Few Clouds
Visibility: 24 km
Cloud details: Few Clouds 549 m
Few Clouds 7620 m
2020/07/09 17:00 CYGK 091700Z 17008KT 15SM FEW018TCU FEW250 27/22 A2996 RMK TCU1CI1 SLP144 DENSITY ALT 1800FT
KMSS - Massena, New York, USA
Distance from station: E 62km
Updated: Thu, 09-Jul-2020 12:53pm EDT
Few Clouds
Few Clouds
 Wind from WNW
Wind: WNW 17 km/h, Gust: 28 km/h
Temperature: 34°C
Heat Index: 36°C
Dew Point: 19°C
Humidity: 41%
Barometer: 29.93 inHg , 1013.5 hPa
Clouds: Few Clouds
Visibility: 16 km
Cloud details: Few Clouds 1829 m
2020/07/09 16:53 KMSS 091653Z AUTO 29009G15KT 10SM FEW060 34/19 A2993 RMK AO2 SLP131 T03440189